createdAt,value
2017-11-07T05:59:32.600Z,3
2017-11-07T06:06:33.156Z,7
2017-11-07T06:10:04.267Z,10
2017-11-07T06:12:04.601Z,13
2017-11-07T06:14:05.081Z,17
2017-11-07T06:15:34.330Z,20
2017-11-07T06:16:34.382Z,23
2017-11-07T06:17:34.520Z,27
2017-11-07T06:18:05.359Z,30
2017-11-07T06:19:05.476Z,33
2017-11-07T06:19:34.647Z,37
2017-11-07T06:20:05.531Z,40
2017-11-07T06:21:34.788Z,43
2017-11-07T06:23:05.884Z,47
2017-11-07T06:24:05.812Z,50
2017-11-07T06:25:05.851Z,53
2017-11-07T06:26:05.911Z,57
2017-11-07T06:26:35.156Z,60
2017-11-07T06:28:06.063Z,63
2017-11-07T06:29:06.171Z,67
2017-11-07T06:29:35.341Z,70
2017-11-07T06:30:35.437Z,73
2017-11-07T06:31:35.500Z,80
2017-11-07T06:32:06.407Z,83
2017-11-07T06:32:35.637Z,87
2017-11-07T06:33:06.495Z,90
2017-11-07T06:33:35.712Z,93
2017-11-07T06:34:06.566Z,97
2017-11-07T06:34:35.746Z,100
2017-11-07T06:35:35.811Z,103
2017-11-07T06:36:06.692Z,107
2017-11-07T06:36:35.885Z,113
2017-11-07T06:37:06.794Z,117
2017-11-07T06:37:35.963Z,127
2017-11-07T06:38:06.839Z,133
2017-11-07T06:38:36.077Z,137
2017-11-07T06:39:06.913Z,150
2017-11-07T06:39:36.120Z,167
2017-11-07T06:40:06.985Z,183
2017-11-07T06:40:36.212Z,200
2017-11-07T06:41:07.117Z,213
2017-11-07T06:41:36.257Z,223
2017-11-07T06:42:07.124Z,227
2017-11-07T06:44:07.323Z,223
2017-11-07T06:44:36.476Z,213
2017-11-07T06:45:36.543Z,207
2017-11-07T06:46:07.458Z,200
2017-11-07T06:46:36.666Z,197
2017-11-07T06:47:07.535Z,193
2017-11-07T06:48:07.627Z,197
2017-11-07T06:48:36.760Z,200
2017-11-07T06:49:07.898Z,197
2017-11-07T06:49:37.043Z,193
2017-11-07T06:50:37.149Z,197
2017-11-07T06:51:08.078Z,203
2017-11-07T06:51:37.214Z,207
2017-11-07T06:52:08.099Z,210
2017-11-07T06:52:37.298Z,213
2017-11-07T06:53:37.404Z,217
2017-11-07T06:54:08.294Z,227
2017-11-07T06:54:37.443Z,230
2017-11-07T06:55:08.374Z,237
2017-11-07T06:55:37.519Z,233
2017-11-07T06:56:37.627Z,230
2017-11-07T06:57:37.703Z,233
2017-11-07T06:58:08.537Z,240
2017-11-07T06:58:37.755Z,247
2017-11-07T06:59:08.652Z,250
2017-11-07T06:59:37.826Z,263
2017-11-07T07:00:08.681Z,280
2017-11-07T07:00:37.886Z,310
2017-11-07T07:01:08.840Z,320
2017-11-07T07:01:38.010Z,310
2017-11-07T07:02:38.087Z,313
2017-11-07T07:03:08.895Z,323
2017-11-07T07:03:38.144Z,330
2017-11-07T07:04:09.068Z,350
2017-11-07T07:04:38.220Z,367
2017-11-07T07:05:09.079Z,357
2017-11-07T07:05:38.247Z,350
2017-11-07T07:06:09.126Z,367
2017-11-07T07:06:38.362Z,383
2017-11-07T07:07:09.213Z,397
2017-11-07T07:07:38.444Z,410
2017-11-07T07:08:38.507Z,407
2017-11-07T07:09:38.572Z,417
2017-11-07T07:10:09.473Z,427
2017-11-07T07:10:38.647Z,430
2017-11-07T07:11:09.529Z,433
2017-11-07T07:11:38.684Z,430
2017-11-07T07:12:09.605Z,433
2017-11-07T07:12:38.796Z,427
2017-11-07T07:13:09.645Z,430
2017-11-07T07:13:38.822Z,467
2017-11-07T07:14:09.715Z,490
2017-11-07T07:14:38.900Z,480
2017-11-07T07:15:09.793Z,473
2017-11-07T07:15:39.004Z,467
2017-11-07T07:16:09.851Z,473
2017-11-07T07:16:39.039Z,510
2017-11-07T07:17:09.926Z,537
2017-11-07T07:17:39.185Z,553
2017-11-07T07:18:10.027Z,583
2017-11-07T07:18:39.197Z,610
2017-11-07T07:19:10.082Z,593
2017-11-07T07:19:39.262Z,550
2017-11-07T07:20:10.145Z,510
2017-11-07T07:20:39.367Z,507
2017-11-07T07:21:10.242Z,547
2017-11-07T07:21:39.415Z,550
2017-11-07T07:22:10.311Z,533
2017-11-07T07:22:39.525Z,530
2017-11-07T07:23:40.558Z,557
2017-11-07T07:24:10.497Z,623
2017-11-07T07:24:39.643Z,620
2017-11-07T07:25:10.609Z,607
2017-11-07T07:25:39.743Z,620
2017-11-07T07:26:10.662Z,647
2017-11-07T07:26:39.826Z,673
2017-11-07T07:27:10.733Z,680
2017-11-07T07:27:39.924Z,660
2017-11-07T07:28:10.809Z,617
2017-11-07T07:28:39.980Z,583
2017-11-07T07:29:10.931Z,603
2017-11-07T07:29:40.058Z,610
2017-11-07T07:30:10.977Z,597
2017-11-07T07:30:40.180Z,580
2017-11-07T07:31:11.045Z,583
2017-11-07T07:31:40.267Z,570
2017-11-07T07:41:41.096Z,800
2017-11-07T07:42:11.975Z,827
2017-11-07T07:42:41.255Z,830
2017-11-07T07:43:12.029Z,853
2017-11-07T07:43:41.321Z,897
2017-11-07T07:44:12.076Z,920
2017-11-07T07:45:12.291Z,873
2017-11-07T07:45:41.398Z,847
2017-11-07T07:46:12.306Z,833
2017-11-07T07:46:41.484Z,847
2017-11-07T07:47:12.360Z,867
2017-11-07T07:47:41.514Z,880
2017-11-07T07:48:12.429Z,870
2017-11-07T07:48:41.578Z,837
2017-11-07T07:49:12.485Z,813
2017-11-07T07:49:41.650Z,810
2017-11-07T07:50:12.622Z,827
2017-11-07T07:50:41.782Z,853
2017-11-07T07:51:12.633Z,867
2017-11-07T07:51:41.802Z,863
2017-11-07T07:52:12.673Z,893
2017-11-07T07:52:41.885Z,953
2017-11-07T07:53:12.770Z,1013
2017-11-07T07:53:41.955Z,1033
2017-11-07T07:54:12.881Z,1060
2017-11-07T07:54:42.062Z,1100
2017-11-07T07:55:12.933Z,1150
2017-11-07T07:55:42.105Z,1257
2017-11-07T07:56:13.000Z,1353
2017-11-07T07:56:42.210Z,1393
2017-11-07T07:57:13.068Z,1383
2017-11-07T07:57:42.358Z,1413
2017-11-07T07:58:13.133Z,1453
2017-11-07T07:58:42.355Z,1483
2017-11-07T07:59:42.436Z,1507
2017-11-07T08:00:13.379Z,1553
2017-11-07T08:00:42.516Z,1597
2017-11-07T08:01:13.417Z,1637
2017-11-07T08:01:42.572Z,1700
2017-11-07T08:02:13.477Z,1790
2017-11-07T08:02:42.649Z,1793
2017-11-07T08:03:13.519Z,1740
2017-11-07T08:03:42.752Z,1660
2017-11-07T08:04:13.612Z,1530
2017-11-07T08:04:42.786Z,1420
2017-11-07T08:05:13.742Z,1390
2017-11-07T08:05:42.873Z,1430
2017-11-07T08:06:13.843Z,1467
2017-11-07T08:06:42.938Z,1420
2017-11-07T08:07:13.846Z,1307
2017-11-07T08:07:43.014Z,1200
2017-11-07T08:08:13.916Z,1160
2017-11-07T08:08:43.111Z,1170
2017-11-07T08:09:14.020Z,1203
2017-11-07T08:09:43.212Z,1233
2017-11-07T08:10:14.163Z,1213
2017-11-07T08:10:43.245Z,1187
2017-11-07T08:11:14.141Z,1177
2017-11-07T08:11:43.363Z,1173
2017-11-07T08:12:14.243Z,1183
2017-11-07T08:12:43.419Z,1190
2017-11-07T08:13:14.297Z,1207
2017-11-07T08:13:43.488Z,1263
2017-11-07T08:14:14.381Z,1323
2017-11-07T08:14:43.619Z,1377
2017-11-07T08:15:14.484Z,1410
2017-11-07T08:15:43.664Z,1453
2017-11-07T08:16:14.570Z,1547
2017-11-07T08:16:43.747Z,1590
2017-11-07T08:17:14.605Z,1593
2017-11-07T08:17:43.813Z,1660
2017-11-07T08:18:14.674Z,1727
2017-11-07T08:18:43.912Z,1753
2017-11-07T08:19:14.731Z,1713
2017-11-07T08:19:43.940Z,1680
2017-11-07T08:20:14.829Z,1693
2017-11-07T08:20:44.020Z,1743
2017-11-07T08:21:14.897Z,1700
2017-11-07T08:21:44.117Z,1610
2017-11-07T08:22:14.944Z,1580
2017-11-07T08:22:44.194Z,1570
2017-11-07T08:23:15.026Z,1517
2017-11-07T08:23:44.275Z,1450
2017-11-07T08:24:15.147Z,1357
2017-11-07T08:24:44.345Z,1300
2017-11-07T08:25:15.290Z,1287
2017-11-07T08:25:44.425Z,1310
2017-11-07T08:26:15.279Z,1363
2017-11-07T08:26:44.484Z,1437
2017-11-07T08:27:15.409Z,1433
2017-11-07T08:27:44.558Z,1430
2017-11-07T08:28:15.431Z,1367
2017-11-07T08:28:44.608Z,1307
2017-11-07T08:29:15.515Z,1303
2017-11-07T08:29:44.674Z,1333
2017-11-07T08:30:15.662Z,1420
2017-11-07T08:30:44.782Z,1493
2017-11-07T08:31:15.646Z,1530
2017-11-07T08:31:44.841Z,1537
2017-11-07T08:32:15.729Z,1567
2017-11-07T08:32:44.902Z,1597
2017-11-07T08:33:15.791Z,1653
2017-11-07T08:33:44.980Z,1737
2017-11-07T08:34:15.863Z,1887
2017-11-07T08:34:45.079Z,2070
2017-11-07T08:35:15.992Z,2233
2017-11-07T08:35:45.176Z,2323
2017-11-07T08:36:16.027Z,2203
2017-11-07T08:36:45.264Z,2050
2017-11-07T08:37:16.082Z,1890
2017-11-07T08:37:45.290Z,1797
2017-11-07T08:38:16.185Z,1713
2017-11-07T08:38:45.409Z,1683
2017-11-07T08:39:16.261Z,1707
2017-11-07T08:39:45.482Z,1787
2017-11-07T08:40:16.419Z,1817
2017-11-07T08:40:45.541Z,1823
2017-11-07T08:41:16.474Z,1803
2017-11-07T08:41:45.621Z,1810
2017-11-07T08:42:16.516Z,1847
2017-11-07T08:42:45.697Z,1903
2017-11-07T08:43:16.641Z,1920
2017-11-07T08:43:45.793Z,2063
2017-11-07T08:44:16.677Z,2127
2017-11-07T08:44:45.827Z,2010
2017-11-07T08:45:16.792Z,1837
2017-11-07T08:45:45.906Z,1873
2017-11-07T08:46:16.818Z,1917
2017-11-07T08:46:45.989Z,1963
2017-11-07T08:47:16.929Z,1947
2017-11-07T08:47:46.051Z,1937
2017-11-07T08:48:16.993Z,1867
2017-11-07T08:48:46.132Z,1760
2017-11-07T08:49:17.102Z,1690
2017-11-07T08:49:46.206Z,1703
2017-11-07T08:50:17.188Z,1683
2017-11-07T08:50:46.321Z,1680
2017-11-07T08:51:17.229Z,1660
2017-11-07T08:51:46.417Z,1707
2017-11-07T08:52:17.283Z,1857
2017-11-07T08:52:46.480Z,1887
2017-11-07T08:53:17.372Z,1900
2017-11-07T08:53:46.544Z,1807
2017-11-07T08:54:17.421Z,1657
2017-11-07T08:54:46.638Z,1617
2017-11-07T08:55:17.526Z,1630
2017-11-07T08:55:46.685Z,1743
2017-11-07T08:56:17.616Z,1800
2017-11-07T08:56:46.802Z,1847
2017-11-07T08:57:17.641Z,1890
2017-11-07T08:57:46.849Z,1933
2017-11-07T08:58:17.727Z,1967
2017-11-07T08:58:46.910Z,1900
2017-11-07T08:59:17.763Z,1727
2017-11-07T08:59:47.012Z,1680
2017-11-07T09:00:17.883Z,1607
2017-11-07T09:00:47.100Z,1603
2017-11-07T09:01:17.952Z,1653
2017-11-07T09:01:47.166Z,1737
2017-11-07T09:02:18.004Z,1840
2017-11-07T09:02:47.238Z,1977
2017-11-07T09:03:18.083Z,2040
2017-11-07T09:03:47.299Z,2053
2017-11-07T09:04:18.210Z,2017
2017-11-07T09:04:47.358Z,1927
2017-11-07T09:05:18.305Z,1890
2017-11-07T09:05:47.479Z,1883
2017-11-07T09:06:47.525Z,1947
2017-11-07T09:07:18.410Z,2060
2017-11-07T09:07:47.608Z,2053
2017-11-07T09:08:18.505Z,2083
2017-11-07T09:08:47.677Z,2123
2017-11-07T09:09:18.542Z,1943
2017-11-07T09:09:47.801Z,1660
2017-11-07T09:10:18.727Z,1527
2017-11-07T09:10:47.853Z,1520
2017-11-07T09:11:18.724Z,1587
2017-11-07T09:11:47.911Z,1517
2017-11-07T09:12:18.831Z,1503
2017-11-07T09:12:47.989Z,1523
2017-11-07T09:13:18.902Z,1450
2017-11-07T09:13:48.094Z,1250
2017-11-07T09:14:18.976Z,1083
2017-11-07T09:14:48.163Z,973
2017-11-07T09:15:19.101Z,920
2017-11-07T09:15:48.220Z,860
2017-11-07T09:16:48.353Z,867
2017-11-07T09:17:48.424Z,870
2017-11-07T09:18:19.307Z,910
2017-11-07T09:18:48.438Z,960
2017-11-07T09:19:19.312Z,1043
2017-11-07T09:19:48.566Z,1150
2017-11-07T09:20:20.942Z,1393
2017-11-07T09:20:48.620Z,1657
2017-11-07T09:21:19.514Z,1770
2017-11-07T09:21:48.623Z,1757
2017-11-07T09:22:19.582Z,1737
2017-11-07T09:22:48.737Z,1917
2017-11-07T09:23:19.667Z,2037
2017-11-07T09:23:48.885Z,2057
2017-11-07T09:24:19.769Z,2087
2017-11-07T09:24:48.904Z,2090
2017-11-07T09:25:19.832Z,2107
2017-11-07T09:25:48.994Z,2113
2017-11-07T09:26:19.927Z,2170
2017-11-07T09:26:49.119Z,2223
2017-11-07T09:27:19.985Z,2160
2017-11-07T09:27:49.121Z,2100
2017-11-07T09:28:20.093Z,2027
2017-11-07T09:28:49.246Z,1963
2017-11-07T09:29:20.156Z,1990
2017-11-07T09:29:49.313Z,2033
2017-11-07T09:30:20.226Z,2133
2017-11-07T09:30:49.426Z,2253
2017-11-07T09:31:20.251Z,2273
2017-11-07T09:31:49.464Z,2143
2017-11-07T09:32:20.322Z,2013
2017-11-07T09:32:49.535Z,1937
2017-11-07T09:33:20.412Z,1880
2017-11-07T09:33:49.612Z,1757
2017-11-07T09:34:20.470Z,1710
2017-11-07T09:34:49.708Z,1703
2017-11-07T09:35:20.562Z,1717
2017-11-07T09:35:49.842Z,1763
2017-11-07T09:36:20.631Z,1867
2017-11-07T09:36:49.832Z,1967
2017-11-07T09:37:20.683Z,2013
2017-11-07T09:37:49.902Z,1973
2017-11-07T09:38:49.977Z,2013
2017-11-07T09:39:20.892Z,2160
2017-11-07T09:39:50.077Z,2090
2017-11-07T09:40:20.970Z,1993
2017-11-07T09:40:50.268Z,1977
2017-11-07T09:41:21.085Z,1837
2017-11-07T09:41:50.269Z,1810
2017-11-07T09:42:21.142Z,1817
2017-11-07T09:42:50.297Z,1873
2017-11-07T09:43:21.250Z,1793
2017-11-07T09:43:50.365Z,1767
2017-11-07T09:44:21.277Z,1747
2017-11-07T09:44:50.444Z,1727
2017-11-07T09:45:21.345Z,1773
2017-11-07T09:45:50.568Z,1930
2017-11-07T09:46:21.425Z,1980
2017-11-07T09:46:50.587Z,2057
2017-11-07T09:47:21.494Z,2097
2017-11-07T09:47:50.710Z,2047
2017-11-07T09:48:21.596Z,1980
2017-11-07T09:48:50.777Z,1907
2017-11-07T09:49:21.789Z,1837
2017-11-07T09:49:50.832Z,1783
2017-11-07T09:50:21.734Z,1847
2017-11-07T09:50:50.942Z,1893
2017-11-07T09:51:21.761Z,1900
2017-11-07T09:51:50.953Z,1743
2017-11-07T09:52:21.866Z,1660
2017-11-07T09:52:51.074Z,1717
2017-11-07T09:53:21.974Z,1810
2017-11-07T09:53:51.096Z,1887
2017-11-07T09:54:21.983Z,1903
2017-11-07T09:54:51.198Z,1910
2017-11-07T09:55:22.109Z,1967
2017-11-07T09:55:51.340Z,1973
2017-11-07T09:56:22.164Z,1883
2017-11-07T09:56:51.331Z,1857
2017-11-07T09:57:22.234Z,1757
2017-11-07T09:57:51.441Z,1563
2017-11-07T09:58:22.318Z,1427
2017-11-07T09:58:51.499Z,1343
2017-11-07T09:59:22.395Z,1320
2017-11-07T09:59:51.553Z,1193
2017-11-07T10:00:22.505Z,1010
2017-11-07T10:00:51.646Z,930
2017-11-07T10:01:22.595Z,917
2017-11-07T10:01:51.732Z,933
2017-11-07T10:02:22.682Z,927
2017-11-07T10:02:51.802Z,937
2017-11-07T10:03:22.744Z,963
2017-11-07T10:03:51.859Z,970
2017-11-07T10:04:22.780Z,957
2017-11-07T10:05:22.958Z,993
2017-11-07T10:05:52.043Z,1050
2017-11-07T10:06:22.964Z,1123
2017-11-07T10:06:52.128Z,1183
2017-11-07T10:07:23.048Z,1267
2017-11-07T10:07:52.249Z,1347
2017-11-07T10:08:23.127Z,1447
2017-11-07T10:08:52.337Z,1560
2017-11-07T10:09:23.206Z,1567
2017-11-07T10:09:52.419Z,1457
2017-11-07T10:12:03.059Z,1220
2017-11-07T10:12:23.441Z,1183
2017-11-07T10:12:52.591Z,1130
2017-11-07T10:13:23.518Z,1107
2017-11-07T10:13:52.665Z,1077
2017-11-07T10:14:23.565Z,1090
2017-11-07T10:14:52.742Z,1150
2017-11-07T10:15:23.632Z,1240
2017-11-07T10:15:53.006Z,1353
2017-11-07T10:16:23.755Z,1497
2017-11-07T10:16:52.976Z,1653
2017-11-07T10:17:23.826Z,1827
2017-11-07T10:17:53.011Z,1843
2017-11-07T10:18:23.853Z,1710
2017-11-07T10:18:53.033Z,1533
2017-11-07T10:19:24.164Z,1403
2017-11-07T10:19:53.173Z,1350
2017-11-07T10:20:24.026Z,1323
2017-11-07T10:20:53.245Z,1300
2017-11-07T10:21:24.094Z,1280
2017-11-07T10:21:53.339Z,1240
2017-11-07T10:22:24.178Z,1193
2017-11-07T10:22:53.367Z,1160
2017-11-07T10:23:24.239Z,1140
2017-11-07T10:23:53.470Z,1133
2017-11-07T10:24:24.349Z,1160
2017-11-07T10:24:53.540Z,1200
2017-11-07T10:25:24.387Z,1267
2017-11-07T10:25:53.599Z,1340
2017-11-07T10:26:24.578Z,1413
2017-11-07T10:26:53.777Z,1470
2017-11-07T10:27:24.715Z,1483
2017-11-07T10:27:53.847Z,1473
2017-11-07T10:28:24.736Z,1483
2017-11-07T10:28:53.952Z,1490
2017-11-07T10:29:24.832Z,1497
2017-11-07T10:29:53.996Z,1517
2017-11-07T10:30:24.884Z,1560
2017-11-07T10:30:54.077Z,1603
2017-11-07T10:31:24.987Z,1643
2017-11-07T10:31:54.166Z,1707
2017-11-07T10:32:25.049Z,1820
2017-11-07T10:32:54.305Z,1730
2017-11-07T10:33:25.128Z,1703
2017-11-07T10:33:54.332Z,1667
2017-11-07T10:34:25.201Z,1750
2017-11-07T10:34:54.403Z,1947
2017-11-07T10:35:25.277Z,2073
2017-11-07T10:35:54.658Z,2177
2017-11-07T10:36:25.423Z,2193
2017-11-07T10:36:54.584Z,2153
2017-11-07T10:37:25.458Z,2120
2017-11-07T10:37:54.604Z,2090
2017-11-07T10:38:25.486Z,2157
2017-11-07T10:38:54.745Z,2150
2017-11-07T10:39:25.594Z,2193
2017-11-07T10:39:54.777Z,2160
2017-11-07T10:40:25.678Z,2093
2017-11-07T10:40:54.824Z,2037
2017-11-07T10:41:25.835Z,1920
2017-11-07T10:41:54.900Z,1803
2017-11-07T10:42:25.845Z,1767
2017-11-07T10:42:55.046Z,1773
2017-11-07T10:43:25.919Z,1783
2017-11-07T10:43:55.091Z,1713
2017-11-07T10:44:25.985Z,1677
2017-11-07T10:44:55.158Z,1660
2017-11-07T10:45:55.253Z,1650
2017-11-07T10:46:26.190Z,1647
2017-11-07T10:46:55.336Z,1643
2017-11-07T10:47:26.247Z,1670
2017-11-07T10:47:55.495Z,1743
2017-11-07T10:48:26.315Z,1830
2017-11-07T10:48:55.501Z,1863
2017-11-07T10:49:26.372Z,1823
2017-11-07T10:49:55.726Z,1797
2017-11-07T10:50:26.451Z,1790
2017-11-07T10:50:55.718Z,1787
2017-11-07T10:51:26.586Z,1780
2017-11-07T10:51:55.766Z,1797
2017-11-07T10:52:26.606Z,1800
2017-11-07T10:52:55.863Z,1840
2017-11-07T10:53:26.669Z,1880
2017-11-07T10:53:55.889Z,1910
2017-11-07T10:54:26.748Z,1973
2017-11-07T10:54:55.974Z,2017
2017-11-07T10:55:26.835Z,2053
2017-11-07T10:55:56.061Z,2110
2017-11-07T10:56:26.986Z,2120
2017-11-07T10:56:56.140Z,2010
2017-11-07T10:57:26.986Z,1887
2017-11-07T10:57:56.234Z,1797
2017-11-07T10:58:27.060Z,1833
2017-11-07T10:58:56.282Z,1927
2017-11-07T10:59:27.151Z,1997
2017-11-07T10:59:56.382Z,1967
2017-11-07T11:00:27.268Z,1937
2017-11-07T11:00:56.472Z,1953
2017-11-07T11:01:27.562Z,2073
2017-11-07T11:01:56.535Z,2120
2017-11-07T11:02:27.382Z,2093
2017-11-07T11:02:56.577Z,2047
2017-11-07T11:03:27.486Z,2017
2017-11-07T11:03:56.666Z,2050
2017-11-07T11:04:27.542Z,2213
2017-11-07T11:04:56.697Z,2390
2017-11-07T11:05:27.586Z,2473
2017-11-07T11:05:56.805Z,2370
2017-11-07T11:06:27.711Z,2213
2017-11-07T11:06:56.845Z,1950
2017-11-07T11:07:27.734Z,1790
2017-11-07T11:07:56.928Z,1757
2017-11-07T11:08:27.798Z,1763
2017-11-07T11:08:56.983Z,1807
2017-11-07T11:09:27.880Z,1820
2017-11-07T11:09:57.047Z,1790
2017-11-07T11:10:27.936Z,1787
2017-11-07T11:10:57.131Z,1813
2017-11-07T11:11:28.016Z,1927
2017-11-07T11:11:57.235Z,2263
2017-11-07T11:12:28.087Z,2873
2017-11-07T11:12:57.333Z,3490
2017-11-07T11:13:28.225Z,3840
2017-11-07T11:13:57.393Z,3877
2017-11-07T11:14:28.289Z,4123
2017-11-07T11:14:57.486Z,4473
2017-11-07T11:15:28.360Z,4980
2017-11-07T11:15:57.540Z,5360
2017-11-07T11:16:28.486Z,5770
2017-11-07T11:16:57.653Z,6003
2017-11-07T11:17:28.537Z,6090
2017-11-07T11:17:57.668Z,5973
2017-11-07T11:18:28.585Z,5863
2017-11-07T11:18:57.779Z,5723
2017-11-07T11:19:28.670Z,5400
2017-11-07T11:19:57.831Z,5117
2017-11-07T11:20:28.786Z,4850
2017-11-07T11:20:57.905Z,4467
2017-11-07T11:21:28.852Z,4210
2017-11-07T11:21:57.966Z,4007
2017-11-07T11:22:28.891Z,3717
2017-11-07T11:22:58.035Z,3473
2017-11-07T11:23:29.013Z,3323
2017-11-07T11:23:58.159Z,3200
2017-11-07T11:24:29.030Z,3073
2017-11-07T11:24:58.187Z,2927
2017-11-07T11:25:29.098Z,2750
2017-11-07T11:25:58.352Z,2627
2017-11-07T11:26:29.262Z,2590
2017-11-07T11:26:58.471Z,2547
2017-11-07T11:29:58.715Z,2117
2017-11-07T11:30:29.721Z,2087
2017-11-07T11:30:58.824Z,2073
2017-11-07T11:44:30.996Z,2877
2017-11-07T11:45:00.246Z,2703
2017-11-07T11:45:31.717Z,2617
2017-11-07T11:46:00.697Z,2600
2017-11-07T11:46:31.202Z,2583
2017-11-07T11:47:00.659Z,2560
2017-11-07T11:47:31.265Z,2543
2017-11-07T11:48:00.776Z,2510
2017-11-07T11:48:31.307Z,2407
2017-11-07T11:49:00.673Z,2347
2017-11-07T11:49:31.406Z,2277
2017-11-07T11:50:00.744Z,2243
2017-11-07T11:50:31.492Z,2147
2017-11-07T11:51:00.645Z,2090
2017-11-07T11:51:31.552Z,2033
2017-11-07T11:52:00.808Z,2030
2017-11-07T11:52:31.644Z,2050
2017-11-07T11:53:00.807Z,2083
2017-11-07T11:53:31.707Z,2087
2017-11-07T11:54:00.893Z,2103
2017-11-07T11:55:00.941Z,2213
2017-11-07T11:55:31.865Z,2440
2017-11-07T11:56:01.095Z,2670
2017-11-07T11:56:31.934Z,2943
2017-11-07T11:57:01.138Z,3327
2017-11-07T11:57:32.031Z,3730
2017-11-07T12:10:02.263Z,2130
2017-11-07T12:10:33.111Z,2020
2017-11-07T12:11:02.473Z,1953
2017-11-07T12:11:33.256Z,1950
2017-11-07T12:12:02.436Z,1903
2017-11-07T12:12:33.398Z,1843
2017-11-07T12:13:02.525Z,1800
2017-11-07T12:13:33.392Z,1763
2017-11-07T12:14:02.559Z,1733
2017-11-07T12:18:02.865Z,1547
2017-11-07T12:18:33.774Z,1617
2017-11-07T12:19:02.967Z,1690
2017-11-07T12:19:33.819Z,1683
2017-11-07T12:20:03.006Z,1667
2017-11-07T12:20:33.039Z,1710
2017-11-07T12:21:03.084Z,1837
2017-11-07T12:21:33.956Z,1967
2017-11-07T12:22:03.090Z,1953
2017-11-07T12:22:33.979Z,1830
2017-11-07T12:23:03.185Z,1780
2017-11-07T12:23:34.072Z,1830
2017-11-07T12:24:03.252Z,1863
2017-11-07T12:24:34.139Z,1817
2017-11-07T12:25:03.488Z,1777
2017-11-07T12:25:34.214Z,1813
2017-11-07T12:26:03.435Z,1900
2017-11-07T12:26:34.322Z,1887
2017-11-07T12:27:03.475Z,1737
2017-11-07T12:27:34.413Z,1637
2017-11-07T12:28:03.574Z,1590
2017-11-07T12:28:34.454Z,1573
2017-11-07T12:29:03.656Z,1557
2017-11-07T12:29:34.570Z,1503
2017-11-07T12:30:03.745Z,1540
2017-11-07T12:30:34.699Z,1573
2017-11-07T12:31:03.827Z,1593
2017-11-07T12:31:34.705Z,1607
2017-11-07T12:32:03.920Z,1567
2017-11-07T12:32:34.818Z,1527
2017-11-07T12:33:04.006Z,1560
2017-11-07T12:33:34.897Z,1617
2017-11-07T12:34:04.139Z,1630
2017-11-07T12:34:35.018Z,1597
2017-11-07T12:35:04.149Z,1563
2017-11-07T12:35:35.061Z,1573
2017-11-07T12:36:04.276Z,1570
2017-11-07T12:36:35.135Z,1583
2017-11-07T12:37:04.303Z,1587
2017-11-07T12:37:35.209Z,1630
2017-11-07T12:38:04.380Z,1690
2017-11-07T12:38:35.297Z,1787
2017-11-07T12:39:04.520Z,1860
2017-11-07T12:39:35.354Z,1910
2017-11-07T12:40:04.586Z,1907
2017-11-07T12:40:35.463Z,1873
2017-11-07T12:41:04.752Z,1810
2017-11-07T12:41:35.569Z,1793
2017-11-07T12:42:04.712Z,1820
2017-11-07T12:42:35.632Z,1827
2017-11-07T12:43:04.916Z,1863
2017-11-07T12:43:35.681Z,1910
2017-11-07T12:44:04.925Z,1860
2017-11-07T12:44:35.756Z,1897
2017-11-07T12:45:05.000Z,1903
2017-11-07T12:45:35.829Z,1880
2017-11-07T12:46:05.081Z,1953
2017-11-07T12:46:35.905Z,2077
2017-11-07T12:47:05.158Z,2157
2017-11-07T12:47:35.971Z,2273
2017-11-07T12:48:05.273Z,2347
2017-11-07T12:48:36.276Z,2360
2017-11-07T12:49:05.278Z,2400
2017-11-07T12:49:36.119Z,2420
2017-11-07T12:50:05.346Z,2443
2017-11-07T12:50:36.198Z,2457
2017-11-07T12:51:05.424Z,2483
2017-11-07T12:51:36.276Z,2513
2017-11-07T12:52:05.523Z,2537
2017-11-07T12:52:36.365Z,2547
2017-11-07T12:53:05.583Z,2553
2017-11-07T12:53:36.411Z,2537
2017-11-07T12:54:05.586Z,2523
2017-11-07T12:54:36.496Z,2497
2017-11-07T12:55:05.667Z,2473
2017-11-07T12:55:36.583Z,2467
2017-11-07T12:56:05.767Z,2443
2017-11-07T12:56:36.668Z,2400
2017-11-07T12:57:05.833Z,2347
2017-11-07T12:57:36.752Z,2287
2017-11-07T12:58:05.929Z,2223
2017-11-07T12:58:36.785Z,2180
2017-11-07T12:59:05.984Z,2167
2017-11-07T12:59:36.884Z,2133
2017-11-07T13:00:06.057Z,2057
2017-11-07T13:00:36.934Z,1970
2017-11-07T13:01:06.174Z,1967
2017-11-07T13:02:06.192Z,1920
2017-11-07T13:02:37.071Z,1843
2017-11-07T13:03:06.340Z,1770
2017-11-07T13:03:37.204Z,1740
2017-11-07T13:04:06.361Z,1717
2017-11-07T13:04:37.242Z,1777
2017-11-07T13:05:06.444Z,1830
2017-11-07T13:05:37.285Z,1790
2017-11-07T13:06:06.507Z,1830
2017-11-07T13:06:37.437Z,1847
2017-11-07T13:07:06.544Z,1947
2017-11-07T13:07:37.462Z,1937
2017-11-07T13:08:06.690Z,1897
2017-11-07T13:08:37.567Z,1873
2017-11-07T13:09:06.701Z,1940
2017-11-07T13:09:37.635Z,2013
2017-11-07T13:10:06.770Z,2050
2017-11-07T13:10:37.678Z,2137
2017-11-07T13:11:06.849Z,2273
2017-11-07T13:11:37.798Z,2347
2017-11-07T13:12:06.919Z,2407
2017-11-07T13:12:37.924Z,2453
2017-11-07T13:13:07.042Z,2470
2017-11-07T13:13:37.974Z,2467
2017-11-07T13:14:07.094Z,2477
2017-11-07T13:14:37.989Z,2513
2017-11-07T13:15:07.150Z,2527
2017-11-07T13:16:07.278Z,2533
2017-11-07T13:16:38.153Z,2567
2017-11-07T13:17:07.314Z,2600
2017-11-07T13:17:38.222Z,2597
2017-11-07T13:18:07.453Z,2580
2017-11-07T13:18:38.281Z,2567
2017-11-07T13:19:07.504Z,2533
2017-11-07T13:19:38.375Z,2483
2017-11-07T13:20:07.565Z,2437
2017-11-07T13:20:38.436Z,2367
2017-11-07T13:21:07.664Z,2277
2017-11-07T13:21:38.512Z,2187
2017-11-07T13:22:07.726Z,2123
2017-11-07T13:22:38.550Z,2080
2017-11-07T13:23:07.787Z,2050
2017-11-07T13:23:38.639Z,2000
2017-11-07T13:24:07.844Z,2003
2017-11-07T13:24:38.734Z,1960
2017-11-07T13:25:07.948Z,1873
2017-11-07T13:25:38.765Z,1767
2017-11-07T13:26:08.022Z,1733
2017-11-07T13:26:38.843Z,1683
2017-11-07T13:27:08.112Z,1613
2017-11-07T13:27:39.010Z,1623
2017-11-07T13:28:08.243Z,1667
2017-11-07T13:28:39.060Z,1707
2017-11-07T13:29:08.237Z,1733
2017-11-07T13:29:39.081Z,1753
2017-11-07T13:30:08.355Z,1717
2017-11-07T13:30:39.214Z,1733
2017-11-07T13:31:08.400Z,1727
2017-11-07T13:31:39.266Z,1770
2017-11-07T13:32:08.451Z,1800
2017-11-07T13:32:39.370Z,1813
2017-11-07T13:33:08.583Z,1790
2017-11-07T13:33:39.435Z,1767
2017-11-07T13:34:08.592Z,1750
2017-11-07T13:34:39.550Z,1740
2017-11-07T13:35:08.676Z,1743
2017-11-07T13:35:39.574Z,1770
2017-11-07T13:36:39.650Z,1753
2017-11-07T13:37:08.826Z,1800
2017-11-07T13:37:39.700Z,1803
2017-11-07T13:38:08.923Z,1807
2017-11-07T13:38:39.797Z,1827
2017-11-07T13:39:08.957Z,1787
2017-11-07T13:39:39.840Z,1720
2017-11-07T13:40:09.033Z,1697
2017-11-07T13:40:39.929Z,1687
2017-11-07T13:41:09.166Z,1677
2017-11-07T13:41:39.996Z,1730
2017-11-07T13:42:09.252Z,1800
2017-11-07T13:42:40.153Z,1833
2017-11-07T13:43:09.292Z,1837
2017-11-07T13:43:40.154Z,1820
2017-11-07T13:44:09.400Z,1837
2017-11-07T13:44:40.283Z,1840
2017-11-07T13:45:09.475Z,1893
2017-11-07T13:45:40.398Z,1907
2017-11-07T13:46:09.540Z,1883
2017-11-07T13:46:40.397Z,1877
2017-11-07T13:47:09.585Z,1893
2017-11-07T13:47:40.501Z,1920
2017-11-07T13:48:09.679Z,1943
2017-11-07T13:48:40.544Z,2010
2017-11-07T13:49:09.747Z,2067
2017-11-07T13:49:40.642Z,2107
2017-11-07T13:50:09.809Z,2130
2017-11-07T13:50:40.759Z,2153
2017-11-07T13:51:09.870Z,2210
2017-11-07T13:51:40.757Z,2243
2017-11-07T13:52:09.952Z,2203
2017-11-07T13:52:40.868Z,2087
2017-11-07T13:53:10.054Z,2003
2017-11-07T13:53:41.024Z,2050
2017-11-07T13:54:10.173Z,2070
2017-11-07T13:54:41.049Z,2050
2017-11-07T13:55:10.229Z,2020
2017-11-07T13:55:41.145Z,1983
2017-11-07T13:56:10.305Z,1930
2017-11-07T13:56:41.207Z,1920
2017-11-07T13:57:10.386Z,1973
2017-11-07T13:57:41.288Z,2030
2017-11-07T13:58:41.600Z,1970
2017-11-07T13:59:10.508Z,1963